createdAt,value
2022-10-09T00:01:12.288Z,10.34
2022-10-09T00:03:18.395Z,10.34
2022-10-09T00:05:26.877Z,10.34
2022-10-09T00:07:31.659Z,10.35
2022-10-09T00:09:39.018Z,10.33
2022-10-09T00:11:43.746Z,10.31
2022-10-09T00:13:48.921Z,10.30
2022-10-09T00:15:53.713Z,10.32
2022-10-09T00:17:58.505Z,10.33
2022-10-09T00:20:03.296Z,10.33
2022-10-09T00:22:08.063Z,10.31
2022-10-09T00:24:12.936Z,10.30
2022-10-09T00:26:20.734Z,10.19
2022-10-09T00:28:26.825Z,10.14
2022-10-09T00:30:32.020Z,10.17
2022-10-09T00:32:36.817Z,10.09
2022-10-09T00:34:41.556Z,10.04
2022-10-09T00:36:46.748Z,9.98
2022-10-09T00:38:51.922Z,9.94
2022-10-09T00:40:56.699Z,9.91
2022-10-09T00:43:04.125Z,9.88
2022-10-09T00:45:14.931Z,9.86
2022-10-09T00:47:23.487Z,9.87
2022-10-09T00:49:31.369Z,9.89
2022-10-09T00:51:37.442Z,9.90
2022-10-09T00:53:42.212Z,9.84
2022-10-09T00:55:47.071Z,9.80
2022-10-09T00:57:53.135Z,9.83
2022-10-09T01:00:01.563Z,9.86
2022-10-09T01:02:06.332Z,9.87
2022-10-09T01:04:11.600Z,9.90
2022-10-09T01:06:19.896Z,9.83
2022-10-09T01:08:30.991Z,9.74
2022-10-09T01:10:42.399Z,9.67
2022-10-09T01:12:54.570Z,9.65
2022-10-09T01:15:10.599Z,9.66
2022-10-09T01:17:24.115Z,9.68
2022-10-09T01:19:59.542Z,9.68
2022-10-09T01:22:13.397Z,9.68
2022-10-09T01:24:28.168Z,9.58
2022-10-09T01:26:56.067Z,9.49
2022-10-09T01:29:07.545Z,9.42
2022-10-09T01:31:14.004Z,9.41
2022-10-09T01:33:19.527Z,9.37
2022-10-09T01:35:25.736Z,9.36
2022-10-09T01:37:33.190Z,9.39
2022-10-09T01:39:38.469Z,9.39
2022-10-09T01:41:43.684Z,9.35
2022-10-09T01:43:48.469Z,9.33
2022-10-09T01:45:55.920Z,9.30
2022-10-09T01:48:02.409Z,9.30
2022-10-09T01:50:14.885Z,9.33
2022-10-09T01:52:31.699Z,9.35
2022-10-09T01:54:42.492Z,9.35
2022-10-09T01:56:52.143Z,9.34
2022-10-09T01:58:59.577Z,9.34
2022-10-09T02:01:10.694Z,9.30
2022-10-09T02:03:18.038Z,9.26
2022-10-09T02:05:25.511Z,9.20
2022-10-09T02:07:32.485Z,9.17
2022-10-09T02:09:38.837Z,9.12
2022-10-09T02:11:47.980Z,9.10
2022-10-09T02:13:55.206Z,9.09
2022-10-09T02:16:06.937Z,9.09
2022-10-09T02:18:17.816Z,9.07
2022-10-09T02:20:28.051Z,9.05
2022-10-09T02:22:35.330Z,9.03
2022-10-09T02:24:42.313Z,9.02
2022-10-09T02:26:47.091Z,9.02
2022-10-09T02:28:52.398Z,9.00
2022-10-09T02:31:04.801Z,9.02
2022-10-09T02:33:09.615Z,9.00
2022-10-09T02:35:16.941Z,9.01
2022-10-09T02:37:21.876Z,8.99
2022-10-09T02:39:26.877Z,8.95
2022-10-09T02:41:31.784Z,8.93
2022-10-09T02:43:36.545Z,8.93
2022-10-09T02:45:41.291Z,8.81
2022-10-09T02:47:46.016Z,8.78
2022-10-09T02:49:50.736Z,8.72
2022-10-09T02:51:58.055Z,8.70
2022-10-09T02:54:02.909Z,8.70
2022-10-09T02:56:08.174Z,8.57
2022-10-09T02:58:12.921Z,8.51
2022-10-09T03:00:18.405Z,8.50
2022-10-09T03:02:23.241Z,8.51
2022-10-09T03:04:28.181Z,8.48
2022-10-09T03:06:32.871Z,8.48
2022-10-09T03:08:41.325Z,8.48
2022-10-09T03:10:46.006Z,8.47
2022-10-09T03:12:51.363Z,8.49
2022-10-09T03:14:56.472Z,8.45
2022-10-09T03:17:01.321Z,8.41
2022-10-09T03:19:06.284Z,8.38
2022-10-09T03:21:12.456Z,8.37
2022-10-09T03:23:17.206Z,8.40
2022-10-09T03:25:25.134Z,8.37
2022-10-09T03:27:31.136Z,8.35
2022-10-09T03:29:38.623Z,8.23
2022-10-09T03:31:52.908Z,8.11
2022-10-09T03:33:57.981Z,8.04
2022-10-09T03:36:02.682Z,8.03
2022-10-09T03:38:07.411Z,7.99
2022-10-09T03:40:13.276Z,7.94
2022-10-09T03:42:20.702Z,7.93
2022-10-09T03:44:25.442Z,7.89
2022-10-09T03:46:30.625Z,7.82
2022-10-09T03:48:35.401Z,7.78
2022-10-09T03:50:40.505Z,7.76
2022-10-09T03:52:45.250Z,7.76
2022-10-09T03:54:50.022Z,7.76
2022-10-09T03:56:54.694Z,7.76
2022-10-09T03:59:02.133Z,7.76
2022-10-09T04:01:07.031Z,7.75
2022-10-09T04:03:11.827Z,7.73
2022-10-09T04:05:16.807Z,7.74
2022-10-09T04:07:21.862Z,7.72
2022-10-09T04:09:26.564Z,7.65
2022-10-09T04:11:31.369Z,7.66
2022-10-09T04:13:36.224Z,7.68
2022-10-09T04:15:43.583Z,7.65
2022-10-09T04:17:48.295Z,7.64
2022-10-09T04:19:53.119Z,7.64
2022-10-09T04:21:57.824Z,7.64
2022-10-09T04:24:03.715Z,7.65
2022-10-09T04:26:08.915Z,7.65
2022-10-09T04:28:13.446Z,7.61
2022-10-09T04:30:18.533Z,7.61
2022-10-09T04:32:25.990Z,7.62
2022-10-09T04:34:30.704Z,7.58
2022-10-09T04:36:35.626Z,7.51
2022-10-09T04:38:40.436Z,7.44
2022-10-09T04:40:45.139Z,7.41
2022-10-09T04:42:50.132Z,7.40
2022-10-09T04:44:54.893Z,7.35
2022-10-09T04:46:59.617Z,7.41
2022-10-09T04:49:07.090Z,7.49
2022-10-09T04:51:12.997Z,7.57
2022-10-09T04:53:18.105Z,7.61
2022-10-09T04:55:22.925Z,7.57
2022-10-09T04:57:27.664Z,7.52
2022-10-09T04:59:32.587Z,7.40
2022-10-09T05:01:38.631Z,7.39
2022-10-09T05:03:43.612Z,7.43
2022-10-09T05:05:50.951Z,7.37
2022-10-09T05:07:55.697Z,7.32
2022-10-09T05:10:00.590Z,7.31
2022-10-09T05:12:05.286Z,7.30
2022-10-09T05:14:10.611Z,7.29
2022-10-09T05:16:18.492Z,7.32
2022-10-09T05:18:23.293Z,7.34
2022-10-09T05:20:28.036Z,7.36
2022-10-09T05:22:35.422Z,7.31
2022-10-09T05:24:40.155Z,7.26
2022-10-09T05:26:44.887Z,7.22
2022-10-09T05:28:50.184Z,7.21
2022-10-09T05:30:55.502Z,7.19
2022-10-09T05:33:00.326Z,7.17
2022-10-09T05:35:05.091Z,7.18
2022-10-09T05:37:09.849Z,7.18
2022-10-09T05:39:17.238Z,7.18
2022-10-09T05:41:22.341Z,7.18
2022-10-09T05:43:27.697Z,7.20
2022-10-09T05:45:32.178Z,7.15
2022-10-09T05:47:36.987Z,7.17
2022-10-09T05:49:41.917Z,7.15
2022-10-09T05:51:46.642Z,7.14
2022-10-09T05:53:52.265Z,7.11
2022-10-09T05:56:03.556Z,7.08
2022-10-09T05:58:08.631Z,7.01
2022-10-09T06:00:15.336Z,6.93
2022-10-09T06:02:20.173Z,6.85
2022-10-09T06:04:26.806Z,6.82
2022-10-09T06:06:34.043Z,6.77
2022-10-09T06:08:40.234Z,6.82
2022-10-09T06:10:44.969Z,6.86
2022-10-09T06:12:52.431Z,6.87
2022-10-09T06:14:57.121Z,6.87
2022-10-09T06:17:02.500Z,6.91
2022-10-09T06:19:07.973Z,6.91
2022-10-09T06:21:12.828Z,6.87
2022-10-09T06:23:17.525Z,6.85
2022-10-09T06:25:22.300Z,6.88
2022-10-09T06:27:27.130Z,6.92
2022-10-09T06:29:34.637Z,6.99
2022-10-09T06:31:39.358Z,7.03
2022-10-09T06:33:45.703Z,6.99
2022-10-09T06:35:50.504Z,6.99
2022-10-09T06:37:55.330Z,7.00
2022-10-09T06:40:00.045Z,7.06
2022-10-09T06:42:04.760Z,7.05
2022-10-09T06:44:18.594Z,7.02
2022-10-09T06:46:28.025Z,6.99
2022-10-09T06:48:33.595Z,6.95
2022-10-09T06:50:39.644Z,6.96
2022-10-09T06:52:44.362Z,6.96
2022-10-09T06:54:49.095Z,6.94
2022-10-09T06:56:53.945Z,6.94
2022-10-09T06:58:59.242Z,6.96
2022-10-09T07:01:07.699Z,6.93
2022-10-09T07:03:15.369Z,6.92
2022-10-09T07:05:20.254Z,6.97
2022-10-09T07:07:24.987Z,7.07
2022-10-09T07:09:29.826Z,7.18
2022-10-09T07:11:37.011Z,7.25
2022-10-09T07:13:41.893Z,7.28
2022-10-09T07:15:48.109Z,7.30
2022-10-09T07:17:52.940Z,7.37
2022-10-09T07:20:00.389Z,7.43
2022-10-09T07:22:05.139Z,7.39
2022-10-09T07:24:11.199Z,7.39
2022-10-09T07:26:18.332Z,7.45
2022-10-09T07:28:23.161Z,7.52
2022-10-09T07:30:27.919Z,7.46
2022-10-09T07:32:32.757Z,7.56
2022-10-09T07:34:37.475Z,7.70
2022-10-09T07:36:44.806Z,7.75
2022-10-09T07:38:55.348Z,7.86
2022-10-09T07:41:03.589Z,7.94
2022-10-09T07:43:08.311Z,8.00
2022-10-09T07:45:13.737Z,8.04
2022-10-09T07:47:18.438Z,8.12
2022-10-09T07:49:23.414Z,8.23
2022-10-09T07:51:29.765Z,8.31
2022-10-09T07:53:37.111Z,8.40
2022-10-09T07:55:48.131Z,8.53
2022-10-09T07:57:53.498Z,8.61
2022-10-09T07:59:57.943Z,8.69
2022-10-09T08:02:02.681Z,8.73
2022-10-09T08:04:08.329Z,8.80
2022-10-09T08:06:13.286Z,8.81
2022-10-09T08:08:18.012Z,8.92
2022-10-09T08:10:25.401Z,9.05
2022-10-09T08:12:30.155Z,9.18
2022-10-09T08:14:35.037Z,9.28
2022-10-09T08:16:39.807Z,9.40
2022-10-09T08:18:44.656Z,9.50
2022-10-09T08:20:59.734Z,9.65
2022-10-09T08:23:04.660Z,9.75
2022-10-09T08:25:10.343Z,9.85
2022-10-09T08:27:17.671Z,9.95
2022-10-09T08:29:22.427Z,10.09
2022-10-09T08:31:28.157Z,10.23
2022-10-09T08:33:32.900Z,10.35
2022-10-09T08:35:37.644Z,10.46
2022-10-09T08:37:42.619Z,10.56
2022-10-09T08:39:47.498Z,10.69
2022-10-09T08:41:56.037Z,10.76
2022-10-09T08:44:06.106Z,10.93
2022-10-09T08:46:21.074Z,11.05
2022-10-09T08:48:29.516Z,11.17
2022-10-09T08:50:38.250Z,11.30
2022-10-09T08:52:50.242Z,11.43
2022-10-09T08:54:57.150Z,11.59
2022-10-09T08:57:05.862Z,11.69
2022-10-09T08:59:15.069Z,11.89
2022-10-09T09:01:27.765Z,12.08
2022-10-09T09:03:46.958Z,12.27
2022-10-09T09:05:57.938Z,12.39
2022-10-09T09:08:09.976Z,12.51
2022-10-09T09:10:20.358Z,12.86
2022-10-09T09:12:36.617Z,13.12
2022-10-09T09:14:56.842Z,13.35
2022-10-09T09:17:07.936Z,13.48
2022-10-09T09:19:28.027Z,13.57
2022-10-09T09:21:42.279Z,13.64
2022-10-09T09:23:50.426Z,13.63
2022-10-09T09:25:55.195Z,13.68
2022-10-09T09:28:08.767Z,13.68
2022-10-09T09:30:23.524Z,13.67
2022-10-09T09:32:31.784Z,13.75
2022-10-09T09:34:41.942Z,13.77
2022-10-09T09:36:52.493Z,13.81
2022-10-09T09:41:22.142Z,14.00
2022-10-09T09:43:28.794Z,14.06
2022-10-09T09:45:36.192Z,14.14
2022-10-09T09:47:46.453Z,14.16
2022-10-09T09:50:00.266Z,14.17
2022-10-09T09:52:05.826Z,14.18
2022-10-09T09:54:19.485Z,14.24
2022-10-09T09:56:53.355Z,14.26
2022-10-09T09:58:59.536Z,14.30
2022-10-09T10:01:09.096Z,14.42
2022-10-09T10:03:16.888Z,14.54
2022-10-09T10:05:27.508Z,14.64
2022-10-09T10:07:34.750Z,14.75
2022-10-09T10:09:39.464Z,14.78
2022-10-09T10:11:49.021Z,14.85
2022-10-09T10:13:53.787Z,14.92
2022-10-09T10:16:00.548Z,14.94
2022-10-09T10:18:10.438Z,15.06
2022-10-09T10:20:18.282Z,15.08
2022-10-09T10:22:28.198Z,15.07
2022-10-09T10:24:37.293Z,15.08
2022-10-09T10:26:46.235Z,15.12
2022-10-09T10:28:56.122Z,15.15
2022-10-09T10:31:05.875Z,15.21
2022-10-09T10:33:22.263Z,15.29
2022-10-09T10:35:29.792Z,15.30
2022-10-09T10:37:43.773Z,15.35
2022-10-09T10:39:53.133Z,15.43
2022-10-09T10:42:02.318Z,15.47
2022-10-09T10:44:12.484Z,15.51
2022-10-09T10:46:24.899Z,15.55
2022-10-09T10:48:34.206Z,15.66
2022-10-09T10:50:43.971Z,15.73
2022-10-09T10:53:02.689Z,15.78
2022-10-09T10:55:26.855Z,15.83
2022-10-09T10:57:41.320Z,15.91
2022-10-09T10:59:54.677Z,15.99
2022-10-09T11:02:19.534Z,15.92
2022-10-09T11:04:49.694Z,16.00
2022-10-09T11:07:02.546Z,16.05
2022-10-09T11:09:15.380Z,16.10
2022-10-09T11:11:25.464Z,16.14
2022-10-09T11:13:35.086Z,16.11
2022-10-09T11:15:49.923Z,16.12
2022-10-09T11:18:00.338Z,16.12
2022-10-09T11:20:33.287Z,16.25
2022-10-09T11:22:47.398Z,16.32
2022-10-09T11:25:05.966Z,16.33
2022-10-09T11:27:16.867Z,16.38
2022-10-09T11:29:28.275Z,16.45
2022-10-09T11:31:38.017Z,16.48
2022-10-09T11:33:48.565Z,16.49
2022-10-09T11:36:00.447Z,16.49
2022-10-09T11:38:08.255Z,16.53
2022-10-09T11:40:19.518Z,16.49
2022-10-09T11:42:27.716Z,16.36
2022-10-09T11:44:43.326Z,16.46
2022-10-09T11:46:52.234Z,16.36
2022-10-09T11:49:08.020Z,16.37
2022-10-09T11:51:26.141Z,16.41
2022-10-09T11:53:34.517Z,16.42
2022-10-09T11:55:39.563Z,16.50
2022-10-09T11:57:44.079Z,16.52
2022-10-09T11:59:48.945Z,16.53
2022-10-09T12:01:53.766Z,16.53
2022-10-09T12:04:04.692Z,16.55
2022-10-09T12:06:12.568Z,16.52
2022-10-09T12:08:27.400Z,16.56
2022-10-09T12:10:35.187Z,16.57
2022-10-09T12:12:40.454Z,16.60
2022-10-09T12:14:47.870Z,16.59
2022-10-09T12:16:52.661Z,16.62
2022-10-09T12:18:58.358Z,16.64
2022-10-09T12:21:08.262Z,16.60
2022-10-09T12:23:26.353Z,16.61
2022-10-09T12:25:43.980Z,16.64
2022-10-09T12:27:50.565Z,16.65
2022-10-09T12:29:58.655Z,16.69
2022-10-09T12:32:08.208Z,16.67
2022-10-09T12:34:20.476Z,16.67
2022-10-09T12:36:27.635Z,16.71
2022-10-09T12:38:34.414Z,16.72
2022-10-09T12:40:49.202Z,16.74
2022-10-09T12:42:55.380Z,16.75
2022-10-09T12:45:00.233Z,16.75
2022-10-09T12:47:08.135Z,16.73
2022-10-09T12:49:22.501Z,16.78
2022-10-09T12:51:28.952Z,16.78
2022-10-09T12:53:33.714Z,16.72
2022-10-09T12:55:44.569Z,16.73
2022-10-09T12:57:49.421Z,16.78
2022-10-09T12:59:54.738Z,16.75
2022-10-09T13:02:02.188Z,16.76
2022-10-09T13:04:09.474Z,16.78
2022-10-09T13:06:19.808Z,16.73
2022-10-09T13:08:29.052Z,16.76
2022-10-09T13:10:33.929Z,16.73
2022-10-09T13:12:41.290Z,16.70
2022-10-09T13:14:47.687Z,16.72
2022-10-09T13:16:52.444Z,16.73
2022-10-09T13:19:01.528Z,16.73
2022-10-09T13:21:09.498Z,16.72
2022-10-09T13:23:30.219Z,16.72
2022-10-09T13:25:37.699Z,16.71
2022-10-09T13:27:45.088Z,16.66
2022-10-09T13:29:50.318Z,16.65
2022-10-09T13:31:55.182Z,16.63
2022-10-09T13:33:59.909Z,16.62
2022-10-09T13:36:04.648Z,16.67
2022-10-09T13:38:09.528Z,16.65
2022-10-09T13:40:18.185Z,16.66
2022-10-09T13:42:25.197Z,16.70
2022-10-09T13:44:32.643Z,16.72
2022-10-09T13:46:37.454Z,16.74
2022-10-09T13:48:42.223Z,16.69
2022-10-09T13:50:47.039Z,16.72
2022-10-09T13:52:51.894Z,16.72
2022-10-09T13:54:56.637Z,16.78
2022-10-09T13:57:01.529Z,16.83
2022-10-09T13:59:06.431Z,16.87
2022-10-09T14:01:13.930Z,16.87
2022-10-09T14:03:19.217Z,16.82
2022-10-09T14:05:26.633Z,16.82
2022-10-09T14:07:31.390Z,16.85
2022-10-09T14:09:36.186Z,16.82
2022-10-09T14:11:40.938Z,16.82
2022-10-09T14:13:45.746Z,16.82
2022-10-09T14:15:51.717Z,16.78
2022-10-09T14:17:59.444Z,16.76
2022-10-09T14:20:04.239Z,16.73
2022-10-09T14:22:09.025Z,16.69
2022-10-09T14:24:14.543Z,16.70
2022-10-09T14:26:19.348Z,16.69
2022-10-09T14:28:24.085Z,16.69
2022-10-09T14:30:28.869Z,16.67
2022-10-09T14:32:33.691Z,16.65
2022-10-09T14:34:41.828Z,16.67
2022-10-09T14:36:46.659Z,16.62
2022-10-09T14:38:52.691Z,16.62
2022-10-09T14:40:59.190Z,16.57
2022-10-09T14:43:03.959Z,16.55
2022-10-09T14:45:10.408Z,16.53
2022-10-09T14:47:15.127Z,16.52
2022-10-09T14:49:21.550Z,16.51
2022-10-09T14:51:34.779Z,16.48
2022-10-09T14:53:41.495Z,16.47
2022-10-09T14:55:46.228Z,16.47
2022-10-09T14:57:50.939Z,16.46
2022-10-09T14:59:55.894Z,16.45
2022-10-09T15:02:01.381Z,16.42
2022-10-09T15:04:07.287Z,16.38
2022-10-09T15:06:14.363Z,16.34
2022-10-09T15:08:21.737Z,16.33
2022-10-09T15:10:26.480Z,16.30
2022-10-09T15:12:31.231Z,16.26
2022-10-09T15:14:35.978Z,16.24
2022-10-09T15:16:40.881Z,16.24
2022-10-09T15:18:46.651Z,16.18
2022-10-09T15:20:51.819Z,16.15
2022-10-09T15:22:56.306Z,16.07
2022-10-09T15:25:03.712Z,16.05
2022-10-09T15:27:08.718Z,16.02
2022-10-09T15:29:13.969Z,15.95
2022-10-09T15:31:24.501Z,15.89
2022-10-09T15:33:29.529Z,15.84
2022-10-09T15:35:35.873Z,15.85
2022-10-09T15:37:40.778Z,15.83
2022-10-09T15:39:45.532Z,15.79
2022-10-09T15:41:53.032Z,15.77
2022-10-09T15:43:59.628Z,15.80
2022-10-09T15:46:06.114Z,15.73
2022-10-09T15:48:16.317Z,15.74
2022-10-09T15:50:21.144Z,15.74
2022-10-09T15:52:25.864Z,15.75
2022-10-09T15:54:30.815Z,15.76
2022-10-09T15:56:39.704Z,15.72
2022-10-09T15:58:47.651Z,15.71
2022-10-09T16:00:52.970Z,15.72
2022-10-09T16:02:57.746Z,15.69
2022-10-09T16:05:02.700Z,15.66
2022-10-09T16:07:08.090Z,15.59
2022-10-09T16:09:12.887Z,15.60
2022-10-09T16:11:21.922Z,15.56
2022-10-09T16:13:30.027Z,15.53
2022-10-09T16:15:37.454Z,15.45
2022-10-09T16:17:42.192Z,15.42
2022-10-09T16:19:46.951Z,15.42
2022-10-09T16:21:52.181Z,15.37
2022-10-09T16:23:59.094Z,15.29
2022-10-09T16:26:05.190Z,15.25
2022-10-09T16:28:12.467Z,15.22
2022-10-09T16:30:18.029Z,15.18
2022-10-09T16:32:25.660Z,15.17
2022-10-09T16:34:30.409Z,15.14
2022-10-09T16:36:35.271Z,15.12
2022-10-09T16:38:40.308Z,15.08
2022-10-09T16:41:04.562Z,15.08
2022-10-09T16:43:09.553Z,15.05
2022-10-09T16:45:14.398Z,15.05
2022-10-09T16:47:19.133Z,15.03
2022-10-09T16:49:26.831Z,15.00
2022-10-09T16:51:33.294Z,14.99
2022-10-09T16:53:38.417Z,14.95
2022-10-09T16:55:43.038Z,14.83
2022-10-09T16:57:48.287Z,14.80
2022-10-09T16:59:53.362Z,14.76
2022-10-09T17:01:58.211Z,14.74
2022-10-09T17:04:03.089Z,14.70
2022-10-09T17:06:15.223Z,14.68
2022-10-09T17:08:20.160Z,14.61
2022-10-09T17:10:24.945Z,14.54
2022-10-09T17:12:30.880Z,14.50
2022-10-09T17:14:36.616Z,14.49
2022-10-09T17:16:43.438Z,14.48
2022-10-09T17:18:48.637Z,14.44
2022-10-09T17:20:53.151Z,14.34
2022-10-09T17:23:00.787Z,14.32
2022-10-09T17:25:05.597Z,14.29
2022-10-09T17:27:10.706Z,14.30
2022-10-09T17:29:16.682Z,14.29
2022-10-09T17:31:23.323Z,14.25
2022-10-09T17:33:28.263Z,14.25
2022-10-09T17:35:33.522Z,14.24
2022-10-09T17:37:38.019Z,14.18
2022-10-09T17:39:49.719Z,14.14
2022-10-09T17:41:56.763Z,14.14
2022-10-09T17:44:01.900Z,14.13
2022-10-09T17:46:06.932Z,14.08
2022-10-09T17:48:12.695Z,14.07
2022-10-09T17:50:17.581Z,14.03
2022-10-09T17:52:22.293Z,14.02
2022-10-09T17:54:26.996Z,14.03
2022-10-09T17:56:34.851Z,14.00
2022-10-09T17:58:39.564Z,13.96
2022-10-09T18:00:44.346Z,13.94
2022-10-09T18:02:49.272Z,13.94
2022-10-09T18:04:57.365Z,13.91
2022-10-09T18:07:02.423Z,13.90
2022-10-09T18:09:07.582Z,13.87
2022-10-09T18:11:14.952Z,13.84
2022-10-09T18:13:22.324Z,13.77
2022-10-09T18:15:27.034Z,13.74
2022-10-09T18:17:33.516Z,13.68
2022-10-09T18:19:38.287Z,13.62
2022-10-09T18:21:45.494Z,13.58
2022-10-09T18:23:50.938Z,13.55
2022-10-09T18:25:55.713Z,13.54
2022-10-09T18:28:00.521Z,13.50
2022-10-09T18:30:08.990Z,13.43
2022-10-09T18:32:13.983Z,13.39
2022-10-09T18:34:19.015Z,13.38
2022-10-09T18:36:25.933Z,13.34
2022-10-09T18:38:30.915Z,13.29
2022-10-09T18:40:35.772Z,13.24
2022-10-09T18:42:40.649Z,13.22
2022-10-09T18:44:45.390Z,13.20
2022-10-09T18:46:56.773Z,13.18
2022-10-09T18:49:01.692Z,13.14
2022-10-09T18:51:08.051Z,13.15
2022-10-09T18:53:13.811Z,13.16
2022-10-09T18:55:20.820Z,13.17
2022-10-09T18:57:29.015Z,13.17
2022-10-09T18:59:34.049Z,13.15
2022-10-09T19:01:38.868Z,13.16
2022-10-09T19:03:49.256Z,13.11
2022-10-09T19:05:55.099Z,13.08
2022-10-09T19:07:59.959Z,13.05
2022-10-09T19:10:05.420Z,13.04
2022-10-09T19:12:10.347Z,13.02
2022-10-09T19:14:15.971Z,12.98
2022-10-09T19:16:20.794Z,12.97
2022-10-09T19:18:26.118Z,12.96
2022-10-09T19:20:33.794Z,12.91
2022-10-09T19:22:38.681Z,12.91
2022-10-09T19:24:43.839Z,12.90
2022-10-09T19:26:48.710Z,12.90
2022-10-09T19:28:53.529Z,12.88
2022-10-09T19:30:58.261Z,12.82
2022-10-09T19:33:03.036Z,12.82
2022-10-09T19:35:09.342Z,12.81
2022-10-09T19:37:16.875Z,12.80
2022-10-09T19:39:22.343Z,12.78
2022-10-09T19:41:27.166Z,12.78
2022-10-09T19:43:31.956Z,12.78
2022-10-09T19:45:37.044Z,12.77
2022-10-09T19:47:41.862Z,12.77
2022-10-09T19:49:46.858Z,12.72
2022-10-09T19:51:51.710Z,12.67
2022-10-09T19:53:59.213Z,12.65
2022-10-09T19:56:04.324Z,12.61
2022-10-09T19:58:09.557Z,12.55
2022-10-09T20:00:15.554Z,12.54
2022-10-09T20:02:20.370Z,12.51
2022-10-09T20:04:25.286Z,12.49
2022-10-09T20:06:31.105Z,12.47
2022-10-09T20:08:35.818Z,12.49
2022-10-09T20:10:43.196Z,12.51
2022-10-09T20:12:48.266Z,12.52
2022-10-09T20:14:53.388Z,12.55
2022-10-09T20:16:58.238Z,12.56
2022-10-09T20:19:03.610Z,12.57
2022-10-09T20:21:08.796Z,12.62
2022-10-09T20:23:13.720Z,12.61
2022-10-09T20:25:18.585Z,12.64
2022-10-09T20:27:25.974Z,12.70
2022-10-09T20:29:30.868Z,12.69
2022-10-09T20:31:35.684Z,12.65
2022-10-09T20:33:41.682Z,12.65
2022-10-09T20:35:46.530Z,12.67
2022-10-09T20:37:51.257Z,12.69
2022-10-09T20:39:56.046Z,12.70
2022-10-09T20:42:00.834Z,12.73
2022-10-09T20:44:08.526Z,12.76
2022-10-09T20:46:15.121Z,12.77
2022-10-09T20:48:19.890Z,12.72
2022-10-09T20:50:24.863Z,12.71
2022-10-09T20:52:29.568Z,12.66
2022-10-09T20:54:34.325Z,12.64
2022-10-09T20:56:39.393Z,12.62
2022-10-09T20:58:44.794Z,12.59
2022-10-09T21:00:52.238Z,12.55
2022-10-09T21:02:57.126Z,12.51
2022-10-09T21:05:01.905Z,12.51
2022-10-09T21:07:06.799Z,12.50
2022-10-09T21:09:11.846Z,12.42
2022-10-09T21:11:18.467Z,12.42
2022-10-09T21:13:23.384Z,12.40
2022-10-09T21:15:28.216Z,12.36
2022-10-09T21:17:35.578Z,12.37
2022-10-09T21:19:40.364Z,12.36
2022-10-09T21:21:50.082Z,12.33
2022-10-09T21:23:57.925Z,12.36
2022-10-09T21:26:02.925Z,12.37
2022-10-09T21:28:08.102Z,12.36
2022-10-09T21:30:14.563Z,12.39
2022-10-09T21:32:19.323Z,12.42
2022-10-09T21:34:26.687Z,12.44
2022-10-09T21:36:56.174Z,12.46
2022-10-09T21:39:08.695Z,12.44
2022-10-09T21:41:13.457Z,12.45
2022-10-09T21:43:18.380Z,12.45
2022-10-09T21:45:23.093Z,12.43
2022-10-09T21:47:27.949Z,12.45
2022-10-09T21:49:35.259Z,12.43
2022-10-09T21:51:40.008Z,12.40
2022-10-09T21:53:44.722Z,12.40
2022-10-09T21:55:49.521Z,12.38
2022-10-09T21:57:54.289Z,12.36
2022-10-09T21:59:59.069Z,12.36
2022-10-09T22:02:03.781Z,12.37
2022-10-09T22:04:08.673Z,12.32
2022-10-09T22:06:20.375Z,12.32
2022-10-09T22:08:25.971Z,12.30
2022-10-09T22:10:30.661Z,12.30
2022-10-09T22:12:35.936Z,12.25
2022-10-09T22:14:40.374Z,12.20
2022-10-09T22:16:45.318Z,12.20
2022-10-09T22:18:50.025Z,12.22
2022-10-09T22:20:55.070Z,12.21
2022-10-09T22:23:02.633Z,12.22
2022-10-09T22:25:08.616Z,12.24
2022-10-09T22:27:13.304Z,12.23
2022-10-09T22:29:18.162Z,12.24
2022-10-09T22:31:25.166Z,12.23
2022-10-09T22:33:30.134Z,12.24
2022-10-09T22:35:34.874Z,12.23
2022-10-09T22:37:39.596Z,12.18
2022-10-09T22:39:46.916Z,12.16
2022-10-09T22:41:51.853Z,12.10
2022-10-09T22:43:58.489Z,12.06
2022-10-09T22:46:06.660Z,11.97
2022-10-09T22:48:11.360Z,11.89
2022-10-09T22:50:16.251Z,11.88
2022-10-09T22:52:20.922Z,11.84
2022-10-09T22:54:25.617Z,11.79
2022-10-09T22:56:35.672Z,11.83
2022-10-09T22:58:40.544Z,11.81
2022-10-09T23:00:45.358Z,11.84
2022-10-09T23:02:50.300Z,11.83
2022-10-09T23:04:55.186Z,11.85
2022-10-09T23:07:01.759Z,11.85
2022-10-09T23:09:07.945Z,11.86
2022-10-09T23:11:13.354Z,11.84
2022-10-09T23:13:21.801Z,11.87
2022-10-09T23:15:26.569Z,11.85
2022-10-09T23:17:31.291Z,11.87
2022-10-09T23:19:36.063Z,11.91
2022-10-09T23:21:42.798Z,11.92
2022-10-09T23:23:48.888Z,11.96
2022-10-09T23:25:53.619Z,11.98
2022-10-09T23:27:58.395Z,12.00
2022-10-09T23:30:05.864Z,12.03
2022-10-09T23:32:10.633Z,12.03
2022-10-09T23:34:15.797Z,12.02
2022-10-09T23:36:21.324Z,11.97
2022-10-09T23:38:26.055Z,11.93
2022-10-09T23:40:30.813Z,11.90
2022-10-09T23:42:35.543Z,11.86
2022-10-09T23:44:40.294Z,11.82
2022-10-09T23:46:47.608Z,11.83
2022-10-09T23:48:53.917Z,11.78
2022-10-09T23:50:59.773Z,11.76
2022-10-09T23:53:04.498Z,11.75
2022-10-09T23:55:10.466Z,11.75
2022-10-09T23:57:15.264Z,11.77
2022-10-09T23:59:20.125Z,11.77
